createdAt,value
2023-02-26T00:00:47.442Z,1007.78
2023-02-26T00:01:47.800Z,1007.78
2023-02-26T00:02:48.081Z,1007.80
2023-02-26T00:03:48.353Z,1007.76
2023-02-26T00:04:48.704Z,1007.87
2023-02-26T00:05:48.924Z,1007.79
2023-02-26T00:06:49.216Z,1007.78
2023-02-26T00:07:49.551Z,1007.83
2023-02-26T00:08:49.847Z,1007.78
2023-02-26T00:09:50.187Z,1007.85
2023-02-26T00:10:50.490Z,1007.88
2023-02-26T00:11:50.794Z,1007.88
2023-02-26T00:12:51.508Z,1007.87
2023-02-26T00:13:51.348Z,1007.95
2023-02-26T00:14:51.632Z,1007.90
2023-02-26T00:15:51.876Z,1007.95
2023-02-26T00:16:52.253Z,1007.92
2023-02-26T00:17:52.434Z,1007.96
2023-02-26T00:18:52.743Z,1008.03
2023-02-26T00:19:53.061Z,1008.05
2023-02-26T00:20:53.388Z,1008.07
2023-02-26T00:21:53.704Z,1008.09
2023-02-26T00:22:54.038Z,1008.10
2023-02-26T00:23:54.348Z,1008.08
2023-02-26T00:24:54.658Z,1008.10
2023-02-26T00:25:54.971Z,1008.11
2023-02-26T00:26:55.277Z,1008.16
2023-02-26T00:27:55.640Z,1008.15
2023-02-26T00:28:55.976Z,1008.17
2023-02-26T00:29:56.272Z,1008.28
2023-02-26T00:30:56.607Z,1008.21
2023-02-26T00:31:57.032Z,1008.23
2023-02-26T00:32:57.242Z,1008.30
2023-02-26T00:33:57.542Z,1008.26
2023-02-26T00:34:57.865Z,1008.26
2023-02-26T00:35:58.177Z,1008.29
2023-02-26T00:36:58.490Z,1008.33
2023-02-26T00:37:58.803Z,1008.39
2023-02-26T00:38:59.114Z,1008.33
2023-02-26T00:39:59.428Z,1008.37
2023-02-26T00:40:59.726Z,1008.40
2023-02-26T00:42:00.067Z,1008.45
2023-02-26T00:43:00.391Z,1008.44
2023-02-26T00:44:00.700Z,1008.43
2023-02-26T00:45:01.039Z,1008.46
2023-02-26T00:46:01.394Z,1008.45
2023-02-26T00:47:01.611Z,1008.50
2023-02-26T00:48:02.018Z,1008.52
2023-02-26T00:49:02.232Z,1008.58
2023-02-26T00:50:02.556Z,1008.59
2023-02-26T00:51:02.868Z,1008.54
2023-02-26T00:52:03.189Z,1008.58
2023-02-26T00:53:03.544Z,1008.60
2023-02-26T00:54:03.740Z,1008.56
2023-02-26T00:55:04.046Z,1008.58
2023-02-26T00:56:04.384Z,1008.61
2023-02-26T00:57:04.708Z,1008.64
2023-02-26T00:58:05.068Z,1008.64
2023-02-26T00:59:05.319Z,1008.67
2023-02-26T01:00:05.658Z,1008.65
2023-02-26T01:01:05.784Z,1008.70
2023-02-26T01:02:05.982Z,1008.71
2023-02-26T01:03:06.322Z,1008.70
2023-02-26T01:04:06.670Z,1008.73
2023-02-26T01:05:06.912Z,1008.74
2023-02-26T01:06:07.101Z,1008.75
2023-02-26T01:07:07.421Z,1008.75
2023-02-26T01:08:07.671Z,1008.69
2023-02-26T01:09:07.998Z,1008.62
2023-02-26T01:10:08.288Z,1008.72
2023-02-26T01:11:08.617Z,1008.69
2023-02-26T01:12:08.919Z,1008.75
2023-02-26T01:13:09.342Z,1008.76
2023-02-26T01:14:09.517Z,1008.77
2023-02-26T01:15:09.828Z,1008.67
2023-02-26T01:16:10.311Z,1008.75
2023-02-26T01:17:10.471Z,1008.78
2023-02-26T01:18:10.849Z,1008.77
2023-02-26T01:19:11.017Z,1008.77
2023-02-26T01:20:11.331Z,1008.74
2023-02-26T01:21:11.649Z,1008.83
2023-02-26T01:22:11.957Z,1008.82
2023-02-26T01:23:12.303Z,1008.81
2023-02-26T01:24:12.609Z,1008.82
2023-02-26T01:25:12.917Z,1008.80
2023-02-26T01:26:13.241Z,1008.77
2023-02-26T01:27:13.559Z,1008.77
2023-02-26T01:28:13.901Z,1008.82
2023-02-26T01:29:14.239Z,1008.86
2023-02-26T01:30:14.559Z,1008.83
2023-02-26T01:31:15.017Z,1008.83
2023-02-26T01:32:15.355Z,1008.80
2023-02-26T01:33:15.559Z,1008.88
2023-02-26T01:34:15.728Z,1008.85
2023-02-26T01:35:16.108Z,1008.92
2023-02-26T01:36:16.352Z,1008.94
2023-02-26T01:37:16.691Z,1008.84
2023-02-26T01:38:16.911Z,1008.86
2023-02-26T01:39:17.246Z,1008.87
2023-02-26T01:40:17.567Z,1008.89
2023-02-26T01:41:17.880Z,1008.90
2023-02-26T01:42:18.204Z,1008.97
2023-02-26T01:43:18.607Z,1008.95
2023-02-26T01:44:18.833Z,1008.99
2023-02-26T01:45:19.160Z,1008.94
2023-02-26T01:46:19.494Z,1008.95
2023-02-26T01:47:19.710Z,1008.92
2023-02-26T01:48:20.106Z,1009.03
2023-02-26T01:49:20.305Z,1009.02
2023-02-26T01:50:20.694Z,1009.02
2023-02-26T01:51:20.898Z,1009.05
2023-02-26T01:52:21.169Z,1009.07
2023-02-26T01:53:21.379Z,1009.06
2023-02-26T01:54:21.960Z,1009.08
2023-02-26T01:55:22.070Z,1009.05
2023-02-26T01:56:22.321Z,1009.07
2023-02-26T01:57:22.537Z,1009.14
2023-02-26T01:58:22.871Z,1009.11
2023-02-26T01:59:23.188Z,1009.16
2023-02-26T02:00:23.520Z,1009.16
2023-02-26T02:01:23.877Z,1009.21
2023-02-26T02:02:24.174Z,1009.17
2023-02-26T02:03:24.531Z,1009.17
2023-02-26T02:04:24.708Z,1009.32
2023-02-26T02:05:25.067Z,1009.25
2023-02-26T02:06:25.704Z,1009.30
2023-02-26T02:07:25.530Z,1009.35
2023-02-26T02:08:25.783Z,1009.24
2023-02-26T02:09:26.064Z,1009.39
2023-02-26T02:10:26.249Z,1009.34
2023-02-26T02:11:26.598Z,1009.23
2023-02-26T02:12:26.902Z,1009.27
2023-02-26T02:13:27.247Z,1009.28
2023-02-26T02:14:27.538Z,1009.29
2023-02-26T02:15:27.746Z,1009.40
2023-02-26T02:16:28.408Z,1009.40
2023-02-26T02:17:28.327Z,1009.37
2023-02-26T02:18:28.664Z,1009.38
2023-02-26T02:19:29.034Z,1009.36
2023-02-26T02:20:29.224Z,1009.43
2023-02-26T02:21:29.578Z,1009.39
2023-02-26T02:22:29.836Z,1009.44
2023-02-26T02:23:30.087Z,1009.48
2023-02-26T02:24:30.363Z,1009.48
2023-02-26T02:25:30.648Z,1009.49
2023-02-26T02:26:30.878Z,1009.55
2023-02-26T02:27:31.147Z,1009.55
2023-02-26T02:28:31.468Z,1009.50
2023-02-26T02:29:31.694Z,1009.52
2023-02-26T02:30:32.010Z,1009.54
2023-02-26T02:31:32.444Z,1009.55
2023-02-26T02:32:32.797Z,1009.49
2023-02-26T02:33:32.970Z,1009.51
2023-02-26T02:34:33.194Z,1009.55
2023-02-26T02:35:33.560Z,1009.62
2023-02-26T02:36:33.794Z,1009.61
2023-02-26T02:37:34.023Z,1009.56
2023-02-26T02:38:34.274Z,1009.64
2023-02-26T02:39:34.484Z,1009.59
2023-02-26T02:40:34.817Z,1009.56
2023-02-26T02:41:35.169Z,1009.59
2023-02-26T02:42:35.414Z,1009.65
2023-02-26T02:43:35.635Z,1009.67
2023-02-26T02:44:35.878Z,1009.58
2023-02-26T02:45:36.120Z,1009.71
2023-02-26T02:46:36.408Z,1009.64
2023-02-26T02:47:36.630Z,1009.68
2023-02-26T02:48:37.028Z,1009.74
2023-02-26T02:49:37.257Z,1009.63
2023-02-26T02:50:37.614Z,1009.65
2023-02-26T02:51:37.880Z,1009.68
2023-02-26T02:52:38.093Z,1009.66
2023-02-26T02:53:38.318Z,1009.68
2023-02-26T02:54:38.594Z,1009.71
2023-02-26T02:55:38.793Z,1009.72
2023-02-26T02:56:39.121Z,1009.74
2023-02-26T02:57:39.452Z,1009.82
2023-02-26T02:58:39.813Z,1009.83
2023-02-26T02:59:40.030Z,1009.74
2023-02-26T03:00:40.446Z,1009.80
2023-02-26T03:01:40.672Z,1009.80
2023-02-26T03:02:40.956Z,1009.78
2023-02-26T03:03:41.232Z,1009.83
2023-02-26T03:04:41.483Z,1009.83
2023-02-26T03:05:41.709Z,1009.88
2023-02-26T03:06:42.049Z,1009.84
2023-02-26T03:07:42.384Z,1009.87
2023-02-26T03:08:42.761Z,1009.84
2023-02-26T03:09:43.015Z,1009.80
2023-02-26T03:10:43.242Z,1009.90
2023-02-26T03:11:43.451Z,1009.97
2023-02-26T03:12:43.782Z,1009.92
2023-02-26T03:13:44.174Z,1009.90
2023-02-26T03:14:44.401Z,1009.97
2023-02-26T03:15:44.633Z,1009.97
2023-02-26T03:16:45.060Z,1010.00
2023-02-26T03:17:45.273Z,1010.02
2023-02-26T03:18:45.636Z,1010.00
2023-02-26T03:19:45.828Z,1010.04
2023-02-26T03:20:46.157Z,1010.08
2023-02-26T03:21:46.487Z,1010.09
2023-02-26T03:22:46.846Z,1010.12
2023-02-26T03:23:47.094Z,1010.16
2023-02-26T03:24:47.331Z,1010.08
2023-02-26T03:25:47.563Z,1010.17
2023-02-26T03:26:47.782Z,1010.19
2023-02-26T03:27:48.133Z,1010.13
2023-02-26T03:28:48.382Z,1010.20
2023-02-26T03:29:48.587Z,1010.20
2023-02-26T03:30:48.928Z,1010.24
2023-02-26T03:31:49.333Z,1010.25
2023-02-26T03:32:49.566Z,1010.24
2023-02-26T03:33:49.800Z,1010.22
2023-02-26T03:34:50.022Z,1010.23
2023-02-26T03:35:50.229Z,1010.25
2023-02-26T03:36:50.567Z,1010.29
2023-02-26T03:37:50.900Z,1010.39
2023-02-26T03:38:51.261Z,1010.36
2023-02-26T03:39:51.502Z,1010.38
2023-02-26T03:40:51.733Z,1010.42
2023-02-26T03:41:52.015Z,1010.41
2023-02-26T03:42:52.273Z,1010.43
2023-02-26T03:43:52.506Z,1010.55
2023-02-26T03:44:52.720Z,1010.51
2023-02-26T03:45:53.153Z,1010.57
2023-02-26T03:46:53.365Z,1010.57
2023-02-26T03:47:53.714Z,1010.58
2023-02-26T03:48:54.220Z,1010.55
2023-02-26T03:49:54.232Z,1010.64
2023-02-26T03:50:54.594Z,1010.65
2023-02-26T03:51:54.830Z,1010.69
2023-02-26T03:52:55.150Z,1010.73
2023-02-26T03:53:55.505Z,1010.66
2023-02-26T03:54:56.293Z,1010.71
2023-02-26T03:55:55.975Z,1010.68
2023-02-26T03:56:56.310Z,1010.64
2023-02-26T03:57:56.675Z,1010.75
2023-02-26T03:58:56.926Z,1010.88
2023-02-26T03:59:57.158Z,1010.76
2023-02-26T04:00:57.399Z,1010.91
2023-02-26T04:01:57.616Z,1010.78
2023-02-26T04:02:57.857Z,1010.72
2023-02-26T04:03:58.143Z,1010.82
2023-02-26T04:04:58.364Z,1010.76
2023-02-26T04:05:58.729Z,1010.82
2023-02-26T04:06:59.106Z,1010.85
2023-02-26T04:07:59.378Z,1010.88
2023-02-26T04:08:59.627Z,1010.90
2023-02-26T04:09:59.856Z,1010.95
2023-02-26T04:11:00.086Z,1010.94
2023-02-26T04:12:00.395Z,1010.91
2023-02-26T04:13:00.758Z,1010.93
2023-02-26T04:14:00.988Z,1011.02
2023-02-26T04:15:01.347Z,1010.95
2023-02-26T04:16:01.564Z,1010.97
2023-02-26T04:17:01.984Z,1010.98
2023-02-26T04:18:02.200Z,1011.02
2023-02-26T04:19:02.429Z,1010.99
2023-02-26T04:20:02.654Z,1011.02
2023-02-26T04:21:03.006Z,1011.02
2023-02-26T04:22:03.267Z,1011.06
2023-02-26T04:23:03.607Z,1011.06
2023-02-26T04:24:03.973Z,1010.99
2023-02-26T04:25:04.198Z,1011.06
2023-02-26T04:26:04.430Z,1011.03
2023-02-26T04:27:04.654Z,1010.97
2023-02-26T04:28:04.977Z,1011.09
2023-02-26T04:29:05.374Z,1011.08
2023-02-26T04:30:05.575Z,1011.15
2023-02-26T04:31:06.030Z,1011.20
2023-02-26T04:32:06.310Z,1011.24
2023-02-26T04:33:06.420Z,1011.12
2023-02-26T04:34:06.678Z,1011.16
2023-02-26T04:35:06.912Z,1011.12
2023-02-26T04:36:07.159Z,1011.17
2023-02-26T04:37:07.365Z,1011.23
2023-02-26T04:38:07.737Z,1011.21
2023-02-26T04:39:07.957Z,1011.29
2023-02-26T04:40:08.167Z,1011.19
2023-02-26T04:41:08.532Z,1011.24
2023-02-26T04:42:08.753Z,1011.32
2023-02-26T04:43:08.975Z,1011.29
2023-02-26T04:44:09.319Z,1011.39
2023-02-26T04:45:09.678Z,1011.30
2023-02-26T04:46:09.928Z,1011.39
2023-02-26T04:47:10.145Z,1011.37
2023-02-26T04:48:10.380Z,1011.44
2023-02-26T04:49:10.905Z,1011.40
2023-02-26T04:50:11.031Z,1011.40
2023-02-26T04:51:11.244Z,1011.37
2023-02-26T04:52:11.523Z,1011.42
2023-02-26T04:53:11.758Z,1011.47
2023-02-26T04:54:12.101Z,1011.40
2023-02-26T04:55:12.433Z,1011.43
2023-02-26T04:56:12.743Z,1011.48
2023-02-26T04:57:13.121Z,1011.50
2023-02-26T04:58:13.380Z,1011.57
2023-02-26T04:59:13.615Z,1011.50
2023-02-26T05:00:13.861Z,1011.52
2023-02-26T05:01:14.087Z,1011.51
2023-02-26T05:02:14.427Z,1011.50
2023-02-26T05:03:14.774Z,1011.56
2023-02-26T05:04:15.174Z,1011.54
2023-02-26T05:05:15.372Z,1011.56
2023-02-26T05:06:15.730Z,1011.60
2023-02-26T05:07:15.940Z,1011.52
2023-02-26T05:08:16.308Z,1011.55
2023-02-26T05:09:16.538Z,1011.51
2023-02-26T05:10:16.758Z,1011.58
2023-02-26T05:11:17.111Z,1011.53
2023-02-26T05:12:17.342Z,1011.55
2023-02-26T05:13:17.724Z,1011.55
2023-02-26T05:14:17.949Z,1011.50
2023-02-26T05:15:18.165Z,1011.52
2023-02-26T05:16:18.548Z,1011.61
2023-02-26T05:17:18.761Z,1011.71
2023-02-26T05:18:19.102Z,1011.74
2023-02-26T05:19:19.983Z,1011.74
2023-02-26T05:20:19.737Z,1011.80
2023-02-26T05:21:20.090Z,1011.77
2023-02-26T05:22:20.321Z,1011.79
2023-02-26T05:23:20.563Z,1011.86
2023-02-26T05:24:20.811Z,1011.89
2023-02-26T05:25:21.056Z,1011.95
2023-02-26T05:26:21.392Z,1011.92
2023-02-26T05:27:21.623Z,1011.96
2023-02-26T05:28:22.018Z,1011.93
2023-02-26T05:29:22.134Z,1011.94
2023-02-26T05:30:22.358Z,1011.94
2023-02-26T05:31:22.705Z,1011.96
2023-02-26T05:32:34.299Z,1011.99
2023-02-26T05:33:23.225Z,1012.02
2023-02-26T05:34:23.496Z,1012.05
2023-02-26T05:35:23.756Z,1012.10
2023-02-26T05:36:24.410Z,1012.11
2023-02-26T05:37:24.222Z,1012.08
2023-02-26T05:38:24.580Z,1012.12
2023-02-26T05:39:24.836Z,1012.04
2023-02-26T05:40:25.065Z,1012.12
2023-02-26T05:41:25.308Z,1012.12
2023-02-26T05:42:25.972Z,1012.19
2023-02-26T05:43:25.779Z,1012.14
2023-02-26T05:44:26.028Z,1012.21
2023-02-26T05:45:26.286Z,1012.17
2023-02-26T05:46:26.863Z,1012.21
2023-02-26T05:47:26.826Z,1012.22
2023-02-26T05:48:27.045Z,1012.26
2023-02-26T05:49:27.309Z,1012.23
2023-02-26T05:50:27.546Z,1012.25
2023-02-26T05:51:27.766Z,1012.29
2023-02-26T05:52:28.226Z,1012.31
2023-02-26T05:53:28.569Z,1012.27
2023-02-26T05:54:29.343Z,1012.35
2023-02-26T05:55:29.147Z,1012.32
2023-02-26T05:56:29.329Z,1012.44
2023-02-26T05:57:29.684Z,1012.38
2023-02-26T05:58:29.946Z,1012.39
2023-02-26T05:59:30.252Z,1012.41
2023-02-26T06:00:30.460Z,1012.45
2023-02-26T06:01:30.753Z,1012.52
2023-02-26T06:02:30.994Z,1012.47
2023-02-26T06:03:31.255Z,1012.51
2023-02-26T06:04:31.498Z,1012.48
2023-02-26T06:05:31.766Z,1012.55
2023-02-26T06:06:32.004Z,1012.56
2023-02-26T06:07:32.265Z,1012.58
2023-02-26T06:08:32.507Z,1012.59
2023-02-26T06:09:32.786Z,1012.61
2023-02-26T06:10:33.045Z,1012.64
2023-02-26T06:11:34.153Z,1012.55
2023-02-26T06:12:33.560Z,1012.64
2023-02-26T06:13:33.795Z,1012.62
2023-02-26T06:14:34.081Z,1012.65
2023-02-26T06:15:34.317Z,1012.62
2023-02-26T06:16:34.586Z,1012.69
2023-02-26T06:17:34.868Z,1012.71
2023-02-26T06:18:35.222Z,1012.74
2023-02-26T06:19:36.100Z,1012.74
2023-02-26T06:20:36.237Z,1012.72
2023-02-26T06:21:36.058Z,1012.79
2023-02-26T06:22:36.296Z,1012.78
2023-02-26T06:23:36.396Z,1012.83
2023-02-26T06:24:36.675Z,1012.80
2023-02-26T06:25:36.960Z,1012.84
2023-02-26T06:26:39.565Z,1012.96
2023-02-26T06:27:37.484Z,1012.93
2023-02-26T06:28:37.726Z,1012.96
2023-02-26T06:29:38.019Z,1012.96
2023-02-26T06:30:38.359Z,1012.98
2023-02-26T06:31:38.793Z,1012.93
2023-02-26T06:32:38.916Z,1012.98
2023-02-26T06:33:39.238Z,1013.00
2023-02-26T06:34:39.539Z,1012.98
2023-02-26T06:35:39.801Z,1013.03
2023-02-26T06:36:40.044Z,1013.11
2023-02-26T06:37:40.336Z,1013.03
2023-02-26T06:38:40.573Z,1013.07
2023-02-26T06:39:40.864Z,1013.05
2023-02-26T06:40:41.119Z,1013.08
2023-02-26T06:41:41.394Z,1013.08
2023-02-26T06:42:41.694Z,1013.10
2023-02-26T06:43:41.964Z,1013.11
2023-02-26T06:44:42.216Z,1013.15
2023-02-26T06:45:42.487Z,1013.22
2023-02-26T06:46:43.015Z,1013.18
2023-02-26T06:47:51.261Z,1013.21
2023-02-26T06:48:43.291Z,1013.18
2023-02-26T06:49:43.553Z,1013.22
2023-02-26T06:50:43.785Z,1013.19
2023-02-26T06:51:44.030Z,1013.16
2023-02-26T06:52:44.281Z,1013.16
2023-02-26T06:53:44.611Z,1013.23
2023-02-26T06:54:44.861Z,1013.25
2023-02-26T06:55:45.144Z,1013.29
2023-02-26T06:56:45.401Z,1013.28
2023-02-26T06:57:45.647Z,1013.26
2023-02-26T06:58:45.883Z,1013.34
2023-02-26T06:59:46.159Z,1013.35
2023-02-26T07:00:46.490Z,1013.36
2023-02-26T07:01:46.714Z,1013.40
2023-02-26T07:02:46.983Z,1013.46
2023-02-26T07:03:47.255Z,1013.44
2023-02-26T07:04:47.559Z,1013.46
2023-02-26T07:05:47.806Z,1013.51
2023-02-26T07:06:48.048Z,1013.47
2023-02-26T07:07:48.345Z,1013.47
2023-02-26T07:08:48.627Z,1013.47
2023-02-26T07:09:48.873Z,1013.47
2023-02-26T07:10:49.111Z,1013.58
2023-02-26T07:11:49.356Z,1013.51
2023-02-26T07:12:49.623Z,1013.59
2023-02-26T07:13:49.852Z,1013.59
2023-02-26T07:14:50.173Z,1013.61
2023-02-26T07:15:50.430Z,1013.62
2023-02-26T07:16:50.741Z,1013.63
2023-02-26T07:17:51.059Z,1013.63
2023-02-26T07:18:51.301Z,1013.65
2023-02-26T07:19:51.558Z,1013.75
2023-02-26T07:20:51.804Z,1013.75
2023-02-26T07:21:52.092Z,1013.71
2023-02-26T07:22:52.332Z,1013.77
2023-02-26T07:23:52.572Z,1013.78
2023-02-26T07:24:52.853Z,1013.76
2023-02-26T07:25:53.102Z,1013.91
2023-02-26T07:26:53.359Z,1013.88
2023-02-26T07:27:53.589Z,1013.88
2023-02-26T07:28:53.843Z,1013.94
2023-02-26T07:29:54.108Z,1013.88
2023-02-26T07:30:54.460Z,1013.92
2023-02-26T07:31:54.645Z,1013.96
2023-02-26T07:32:54.835Z,1013.99
2023-02-26T07:33:55.072Z,1013.96
2023-02-26T07:34:55.649Z,1014.06
2023-02-26T07:35:55.679Z,1014.03
2023-02-26T07:36:55.901Z,1014.03
2023-02-26T07:37:56.136Z,1014.14
2023-02-26T07:38:56.376Z,1014.08
2023-02-26T07:39:56.648Z,1014.08
2023-02-26T07:40:56.955Z,1014.17
2023-02-26T07:41:57.300Z,1014.17
2023-02-26T07:42:58.105Z,1014.17
2023-02-26T07:43:57.963Z,1014.22
2023-02-26T07:44:58.239Z,1014.20
2023-02-26T07:45:58.401Z,1014.21
2023-02-26T07:46:58.766Z,1014.23
2023-02-26T07:47:58.872Z,1014.27
2023-02-26T07:48:59.149Z,1014.27
2023-02-26T07:49:59.398Z,1014.36
2023-02-26T07:50:59.663Z,1014.39
2023-02-26T07:52:00.142Z,1014.38
2023-02-26T07:53:00.343Z,1014.40
2023-02-26T07:54:00.991Z,1014.47
2023-02-26T07:55:00.713Z,1014.40
2023-02-26T07:56:01.021Z,1014.44
2023-02-26T07:57:01.162Z,1014.50
2023-02-26T07:58:01.780Z,1014.45
2023-02-26T07:59:01.676Z,1014.51
2023-02-26T08:00:02.116Z,1014.47
2023-02-26T08:01:02.250Z,1014.51
2023-02-26T08:02:02.520Z,1014.50
2023-02-26T08:03:02.781Z,1014.47
2023-02-26T08:04:03.133Z,1014.50
2023-02-26T08:05:03.399Z,1014.48
2023-02-26T08:06:03.623Z,1014.59
2023-02-26T08:07:04.078Z,1014.51
2023-02-26T08:08:04.157Z,1014.62
2023-02-26T08:09:04.731Z,1014.52
2023-02-26T08:10:04.946Z,1014.54
2023-02-26T08:11:05.003Z,1014.61
2023-02-26T08:12:05.531Z,1014.58
2023-02-26T08:13:06.069Z,1014.72
2023-02-26T08:14:05.841Z,1014.61
2023-02-26T08:15:06.279Z,1014.62
2023-02-26T08:16:06.495Z,1014.60
2023-02-26T08:17:06.753Z,1014.59
2023-02-26T08:18:07.042Z,1014.74
2023-02-26T08:19:07.317Z,1014.74
2023-02-26T08:20:07.645Z,1014.76
2023-02-26T08:21:07.892Z,1014.82
2023-02-26T08:22:09.077Z,1014.75
2023-02-26T08:23:08.459Z,1014.90
2023-02-26T08:24:08.915Z,1014.82
2023-02-26T08:25:09.180Z,1014.82
2023-02-26T08:26:10.160Z,1014.87
2023-02-26T08:27:09.703Z,1014.88
2023-02-26T08:28:11.036Z,1014.91
2023-02-26T08:29:10.384Z,1014.91
2023-02-26T08:30:10.564Z,1014.95
2023-02-26T08:31:11.678Z,1014.92
2023-02-26T08:32:11.451Z,1014.95
2023-02-26T08:33:11.570Z,1014.95
2023-02-26T08:34:12.038Z,1014.90
2023-02-26T08:35:12.196Z,1014.87
2023-02-26T08:36:12.716Z,1014.89
2023-02-26T08:37:12.872Z,1014.87
2023-02-26T08:38:13.352Z,1014.93
2023-02-26T08:39:13.548Z,1014.91
2023-02-26T08:40:15.251Z,1014.90
2023-02-26T08:41:13.983Z,1014.98
2023-02-26T08:42:14.361Z,1015.00
2023-02-26T08:43:14.545Z,1014.96
2023-02-26T08:44:15.006Z,1014.94
2023-02-26T08:45:26.168Z,1014.95
2023-02-26T08:46:15.647Z,1014.91
2023-02-26T08:47:24.508Z,1014.96
2023-02-26T08:48:17.053Z,1014.95
2023-02-26T08:49:16.431Z,1014.99
2023-02-26T08:50:16.774Z,1015.01
2023-02-26T08:51:17.072Z,1015.00
2023-02-26T08:52:17.436Z,1015.07
2023-02-26T08:53:17.828Z,1015.06
2023-02-26T08:54:18.557Z,1015.05
2023-02-26T08:55:18.083Z,1015.17
2023-02-26T08:56:18.381Z,1015.07
2023-02-26T08:57:18.668Z,1015.11
2023-02-26T08:58:18.973Z,1015.17
2023-02-26T08:59:19.315Z,1015.11
2023-02-26T09:00:19.584Z,1015.28
2023-02-26T09:01:19.835Z,1015.17
2023-02-26T09:02:20.090Z,1015.19
2023-02-26T09:03:20.354Z,1015.23
2023-02-26T09:04:20.702Z,1015.21
2023-02-26T09:05:20.989Z,1015.33
2023-02-26T09:06:21.245Z,1015.30
2023-02-26T09:07:21.508Z,1015.38
2023-02-26T09:08:21.763Z,1015.37
2023-02-26T09:09:22.047Z,1015.39
2023-02-26T09:10:22.382Z,1015.39
2023-02-26T09:11:22.768Z,1015.33
2023-02-26T09:12:22.994Z,1015.38
2023-02-26T09:13:23.163Z,1015.40
2023-02-26T09:14:23.469Z,1015.45
2023-02-26T09:15:23.796Z,1015.49
2023-02-26T09:16:24.484Z,1015.40
2023-02-26T09:17:24.429Z,1015.54
2023-02-26T09:18:24.760Z,1015.50
2023-02-26T09:19:25.075Z,1015.54
2023-02-26T09:20:25.427Z,1015.53
2023-02-26T09:21:25.679Z,1015.59
2023-02-26T09:22:25.896Z,1015.61
2023-02-26T09:23:26.199Z,1015.60
2023-02-26T09:24:26.513Z,1015.55
2023-02-26T09:25:26.806Z,1015.69
2023-02-26T09:26:27.464Z,1015.59
2023-02-26T09:27:27.360Z,1015.69
2023-02-26T09:28:27.680Z,1015.66
2023-02-26T09:29:27.880Z,1015.74
2023-02-26T09:30:28.152Z,1015.79
2023-02-26T09:31:28.512Z,1015.75
2023-02-26T09:32:28.948Z,1015.81
2023-02-26T09:33:29.107Z,1015.86
2023-02-26T09:34:29.383Z,1015.86
2023-02-26T09:35:29.688Z,1015.88
2023-02-26T09:36:29.938Z,1015.97
2023-02-26T09:37:31.025Z,1015.98
2023-02-26T09:38:30.559Z,1015.94
2023-02-26T09:39:30.739Z,1016.02
2023-02-26T09:40:31.060Z,1016.04
2023-02-26T09:41:31.339Z,1016.02
2023-02-26T09:42:31.598Z,1016.00
2023-02-26T09:43:31.920Z,1016.11
2023-02-26T09:44:32.171Z,1016.07
2023-02-26T09:45:32.489Z,1016.09
2023-02-26T09:46:32.788Z,1016.13
2023-02-26T09:47:33.121Z,1016.11
2023-02-26T09:48:33.491Z,1016.14
2023-02-26T09:49:33.740Z,1016.05
2023-02-26T09:50:34.079Z,1016.21
2023-02-26T09:51:34.333Z,1016.10
2023-02-26T09:52:34.606Z,1016.16
2023-02-26T09:53:34.861Z,1016.14
2023-02-26T09:54:35.138Z,1016.21
2023-02-26T09:55:35.464Z,1016.22
2023-02-26T09:56:35.734Z,1016.30
2023-02-26T09:57:36.026Z,1016.23
2023-02-26T09:58:36.298Z,1016.24
2023-02-26T09:59:36.579Z,1016.29
2023-02-26T10:00:36.874Z,1016.37
2023-02-26T10:01:37.240Z,1016.26
2023-02-26T10:02:37.396Z,1016.42
2023-02-26T10:03:37.657Z,1016.34
2023-02-26T10:04:38.039Z,1016.31
2023-02-26T10:05:38.323Z,1016.40
2023-02-26T10:06:38.617Z,1016.36
2023-02-26T10:07:38.899Z,1016.47
2023-02-26T10:08:39.194Z,1016.46
2023-02-26T10:09:39.469Z,1016.51
2023-02-26T10:10:39.752Z,1016.48
2023-02-26T10:11:40.038Z,1016.51
2023-02-26T10:12:40.345Z,1016.51
2023-02-26T10:13:56.233Z,1016.53
2023-02-26T10:14:41.929Z,1016.65
2023-02-26T10:15:41.312Z,1016.62
2023-02-26T10:16:41.653Z,1016.55
2023-02-26T10:17:41.892Z,1016.61
2023-02-26T10:18:42.145Z,1016.55
2023-02-26T10:19:42.411Z,1016.55
2023-02-26T10:20:42.755Z,1016.63
2023-02-26T10:21:43.030Z,1016.62
2023-02-26T10:22:43.311Z,1016.58
2023-02-26T10:23:43.995Z,1016.60
2023-02-26T10:24:43.861Z,1016.64
2023-02-26T10:25:44.163Z,1016.57
2023-02-26T10:26:44.429Z,1016.63
2023-02-26T10:27:44.704Z,1016.64
2023-02-26T10:28:46.328Z,1016.59
2023-02-26T10:29:45.289Z,1016.77
2023-02-26T10:30:45.584Z,1016.71
2023-02-26T10:31:45.920Z,1016.75
2023-02-26T10:32:46.166Z,1016.70
2023-02-26T10:33:46.340Z,1016.65
2023-02-26T10:34:46.616Z,1016.68
2023-02-26T10:35:46.927Z,1016.82
2023-02-26T10:36:47.236Z,1016.75
2023-02-26T10:37:47.487Z,1016.81
2023-02-26T10:38:47.767Z,1016.77
2023-02-26T10:39:48.088Z,1016.90
2023-02-26T10:40:48.368Z,1016.76
2023-02-26T10:41:48.694Z,1016.80
2023-02-26T10:42:48.950Z,1016.79
2023-02-26T10:43:49.215Z,1016.83
2023-02-26T10:44:49.516Z,1016.86
2023-02-26T10:45:49.799Z,1016.76
2023-02-26T10:46:50.077Z,1016.82
2023-02-26T10:47:50.375Z,1016.88
2023-02-26T10:48:50.657Z,1016.88
2023-02-26T10:49:50.962Z,1016.84
2023-02-26T10:50:51.258Z,1016.84
2023-02-26T10:51:51.516Z,1016.87
2023-02-26T10:52:51.807Z,1016.95
2023-02-26T10:53:52.076Z,1016.84
2023-02-26T10:54:52.370Z,1016.90
2023-02-26T10:55:52.656Z,1016.89
2023-02-26T10:56:52.956Z,1016.92
2023-02-26T10:57:53.218Z,1016.94
2023-02-26T10:58:53.544Z,1016.94
2023-02-26T10:59:53.811Z,1016.93
2023-02-26T11:00:54.139Z,1017.05
2023-02-26T11:01:54.309Z,1016.90
2023-02-26T11:02:54.590Z,1016.80
2023-02-26T11:03:54.880Z,1016.80
2023-02-26T11:05:06.855Z,1016.92
2023-02-26T11:05:56.391Z,1016.87
2023-02-26T11:06:55.752Z,1016.93
2023-02-26T11:07:56.041Z,1016.78
2023-02-26T11:08:56.300Z,1016.93
2023-02-26T11:09:56.568Z,1016.85
2023-02-26T11:10:56.882Z,1016.88
2023-02-26T11:11:57.128Z,1016.79
2023-02-26T11:12:57.387Z,1016.86
2023-02-26T11:13:57.686Z,1016.85
2023-02-26T11:14:57.966Z,1016.85
2023-02-26T11:15:58.346Z,1016.88
2023-02-26T11:16:58.559Z,1016.93
2023-02-26T11:17:58.826Z,1016.90
2023-02-26T11:18:59.218Z,1016.81
2023-02-26T11:19:59.355Z,1016.81
2023-02-26T11:20:59.618Z,1016.86
2023-02-26T11:21:59.907Z,1017.00
2023-02-26T11:23:00.207Z,1016.91
2023-02-26T11:24:00.550Z,1016.98
2023-02-26T11:25:00.834Z,1016.91
2023-02-26T11:26:01.143Z,1016.98
2023-02-26T11:27:01.420Z,1017.17
2023-02-26T11:28:01.684Z,1017.01
2023-02-26T11:29:01.989Z,1016.97
2023-02-26T11:30:02.258Z,1017.02
2023-02-26T11:31:02.650Z,1016.94
2023-02-26T11:32:02.950Z,1016.96
2023-02-26T11:33:03.081Z,1017.01
2023-02-26T11:34:03.363Z,1017.06
2023-02-26T11:35:03.632Z,1017.05
2023-02-26T11:36:03.960Z,1017.02
2023-02-26T11:37:04.231Z,1017.11
2023-02-26T11:38:04.543Z,1016.97
2023-02-26T11:39:04.802Z,1017.03
2023-02-26T11:40:05.093Z,1017.05
2023-02-26T11:41:05.434Z,1017.09
2023-02-26T11:42:05.601Z,1017.10
2023-02-26T11:43:05.852Z,1017.14
2023-02-26T11:44:06.135Z,1017.15
2023-02-26T11:45:06.533Z,1017.24
2023-02-26T11:46:06.671Z,1017.22
2023-02-26T11:47:06.952Z,1017.07
2023-02-26T11:48:07.176Z,1017.23
2023-02-26T11:49:07.423Z,1017.21
2023-02-26T11:50:07.712Z,1017.23
2023-02-26T11:51:08.006Z,1017.20
2023-02-26T11:52:08.275Z,1017.21
2023-02-26T11:53:08.544Z,1017.21
2023-02-26T11:54:08.812Z,1017.21
2023-02-26T11:55:09.066Z,1017.23
2023-02-26T11:56:09.346Z,1017.24
2023-02-26T11:57:09.644Z,1017.33
2023-02-26T11:58:09.912Z,1017.34
2023-02-26T11:59:10.189Z,1017.39
2023-02-26T12:00:10.448Z,1017.21
2023-02-26T12:01:10.758Z,1017.28
2023-02-26T12:02:11.071Z,1017.22
2023-02-26T12:03:11.386Z,1017.34
2023-02-26T12:04:11.713Z,1017.28
2023-02-26T12:05:11.875Z,1017.33
2023-02-26T12:06:12.150Z,1017.47
2023-02-26T12:07:12.452Z,1017.22
2023-02-26T12:08:12.710Z,1017.41
2023-02-26T12:09:13.032Z,1017.34